Shiloh, Ohio
Current Conditions -  °F | °C
As of 3:52 AM on Sunday 26 Oct 2014 (Local Time) from KMFD Reporting Station
Clear Clear  
Wind Chill: 45°   Ceiling: Unl
Heat Index: 48°   Visibility: 10mi
Dew Point: 32°   Wind: 7mph
Humidity: 54%   Direction: 290°WNW
Pressure: 29.87"   Gusts: NA
Location:  40.97°N, 82.6°W
Report Text: KMFD 260752Z 29006KT 10SM CLR 09/00 A2987 RMK AO2 SLP114 T00890000
Loading
Personal Weather Stations






























Interactive Weather Map
Tropical Storm Tracking
New forecast layout! Learn more

10-Day Weather Forecast

Advertisements
Track Severe Weather on mobile